Time;durP1;ratioP1;P1;durP2;ratioP2;P2;SDS_P1;SDS_P2;PMS_P1;PMS_P2;Temp;Humidity;BMP_temperature;BMP_pressure;BME280_temperature;BME280_humidity;BME280_pressure;Samples;Min_cycle;Max_cycle;Signal;HPM_P1;HPM_P2
2022/06/09 00:01:57;;;;;;;1.80;1.00;;;;;;;;;;5052953;28;20484;-68
2022/06/09 00:04:32;;;;;;;2.50;0.80;;;;;;;;;;5035843;28;20084;-67
2022/06/09 00:07:02;;;;;;;1.65;0.80;;;;;;;;;;5016020;28;20504;-67
2022/06/09 00:09:35;;;;;;;0.98;0.75;;;;;;;;;;5015306;28;20057;-68
2022/06/09 00:12:02;;;;;;;0.93;0.68;;;;;;;;;;5032871;28;20042;-68
2022/06/09 00:14:29;;;;;;;0.95;0.63;;;;;;;;;;5031342;28;20049;-66
2022/06/09 00:16:56;;;;;;;0.70;0.70;;;;;;;;;;5033341;28;20489;-68
2022/06/09 00:19:22;;;;;;;1.70;0.70;;;;;;;;;;5032682;28;20056;-68
2022/06/09 00:21:49;;;;;;;0.63;0.63;;;;;;;;;;5032553;28;20406;-68
2022/06/09 00:24:17;;;;;;;1.13;0.70;;;;;;;;;;5032939;28;20057;-68
2022/06/09 00:26:44;;;;;;;1.30;0.70;;;;;;;;;;5032612;28;20133;-67
2022/06/09 00:29:11;;;;;;;0.68;0.60;;;;;;;;;;5032332;28;20057;-68
2022/06/09 00:31:38;;;;;;;1.27;0.60;;;;;;;;;;5032572;28;20415;-68
2022/06/09 00:34:05;;;;;;;2.20;0.93;;;;;;;;;;5043044;28;20572;-68
2022/06/09 00:36:32;;;;;;;3.33;0.73;;;;;;;;;;5052348;28;20045;-67
2022/06/09 00:39:00;;;;;;;2.90;0.70;;;;;;;;;;5052279;28;20507;-68
2022/06/09 00:41:27;;;;;;;3.00;0.85;;;;;;;;;;5052033;28;20048;-68
2022/06/09 00:44:13;;;;;;;0.60;0.60;;;;;;;;;;5051983;28;20056;-68
2022/06/09 00:46:40;;;;;;;5.30;1.00;;;;;;;;;;5051178;28;20049;-67
2022/06/09 00:49:22;;;;;;;0.70;0.65;;;;;;;;;;5015765;28;20137;-68
2022/06/09 00:51:49;;;;;;;0.50;0.50;;;;;;;;;;5016067;28;20492;-68
2022/06/09 00:54:27;;;;;;;0.73;0.60;;;;;;;;;;5031881;28;20122;-67
2022/06/09 00:57:10;;;;;;;1.23;0.60;;;;;;;;;;5032044;28;20053;-68
2022/06/09 00:59:37;;;;;;;0.40;0.40;;;;;;;;;;5030807;28;20053;-68
2022/06/09 01:02:07;;;;;;;0.43;0.38;;;;;;;;;;5030650;28;20045;-68
2022/06/09 01:04:34;;;;;;;1.13;0.40;;;;;;;;;;5039303;28;20060;-68
2022/06/09 01:07:10;;;;;;;0.95;0.40;;;;;;;;;;5030943;28;20076;-68
2022/06/09 01:09:37;;;;;;;0.30;0.30;;;;;;;;;;5031963;28;20053;-68
2022/06/09 01:12:21;;;;;;;0.75;0.30;;;;;;;;;;5031899;28;20050;-67
2022/06/09 01:14:48;;;;;;;1.50;0.55;;;;;;;;;;5029717;28;20053;-67
2022/06/09 01:17:21;;;;;;;0.25;0.25;;;;;;;;;;5030469;28;20053;-67
2022/06/09 01:19:59;;;;;;;0.75;0.40;;;;;;;;;;5030629;28;20057;-67
2022/06/09 01:22:57;;;;;;;1.10;0.55;;;;;;;;;;5031594;28;20063;-67
2022/06/09 01:25:51;;;;;;;1.52;0.60;;;;;;;;;;5031623;28;20049;-68
2022/06/09 01:28:53;;;;;;;0.50;0.50;;;;;;;;;;5050557;28;20045;-67
2022/06/09 01:31:48;;;;;;;1.50;0.40;;;;;;;;;;5051533;28;20053;-67
2022/06/09 01:34:30;;;;;;;0.32;0.20;;;;;;;;;;5050674;28;20045;-67
2022/06/09 01:37:17;;;;;;;0.10;0.10;;;;;;;;;;5050513;28;20049;-67
2022/06/09 01:39:48;;;;;;;0.60;0.35;;;;;;;;;;5051651;28;20080;-68
2022/06/09 01:42:27;;;;;;;0.65;0.28;;;;;;;;;;5051146;28;20393;-68
2022/06/09 01:44:56;;;;;;;1.52;0.22;;;;;;;;;;5048854;28;20510;-68
2022/06/09 01:47:25;;;;;;;0.52;0.32;;;;;;;;;;5030168;28;20057;-67
2022/06/09 01:49:52;;;;;;;1.92;0.50;;;;;;;;;;5030381;28;20424;-68
2022/06/09 01:52:19;;;;;;;0.38;0.38;;;;;;;;;;5013785;28;20045;-69
2022/06/09 01:54:45;;;;;;;0.88;0.22;;;;;;;;;;5030391;28;20045;-68
2022/06/09 01:57:21;;;;;;;1.13;0.30;;;;;;;;;;5030255;28;20053;-67
2022/06/09 01:59:51;;;;;;;1.52;0.30;;;;;;;;;;5030290;28;20053;-68
2022/06/09 02:02:20;;;;;;;0.38;0.20;;;;;;;;;;5013763;28;20057;-69
2022/06/09 02:04:57;;;;;;;1.88;0.45;;;;;;;;;;5030013;28;20056;-68
2022/06/09 02:07:24;;;;;;;0.68;0.50;;;;;;;;;;5030291;28;20492;-68
2022/06/09 02:09:51;;;;;;;0.50;0.50;;;;;;;;;;5014009;28;20060;-67
2022/06/09 02:12:22;;;;;;;1.90;0.57;;;;;;;;;;5032543;28;20056;-68
2022/06/09 02:14:51;;;;;;;1.85;0.60;;;;;;;;;;5018001;28;20049;-68
2022/06/09 02:17:18;;;;;;;2.63;0.70;;;;;;;;;;5033581;28;20050;-68
2022/06/09 02:19:46;;;;;;;0.93;0.60;;;;;;;;;;5035092;28;20056;-67
2022/06/09 02:22:12;;;;;;;0.85;0.60;;;;;;;;;;5045448;28;20048;-68
2022/06/09 02:24:39;;;;;;;2.38;1.15;;;;;;;;;;5053497;28;20060;-68
2022/06/09 02:27:06;;;;;;;0.90;0.47;;;;;;;;;;5054935;28;20086;-68
2022/06/09 02:29:33;;;;;;;0.73;0.70;;;;;;;;;;5054631;28;20055;-67
2022/06/09 02:32:00;;;;;;;1.00;0.65;;;;;;;;;;5054835;28;20076;-68
2022/06/09 02:34:26;;;;;;;1.00;0.70;;;;;;;;;;5054431;28;20418;-67
2022/06/09 02:36:53;;;;;;;2.97;0.85;;;;;;;;;;5037368;28;20056;-67
2022/06/09 02:39:20;;;;;;;1.63;0.70;;;;;;;;;;5034839;28;20053;-68
2022/06/09 02:41:46;;;;;;;0.82;0.70;;;;;;;;;;5034528;28;20049;-67
2022/06/09 02:44:13;;;;;;;1.58;0.60;;;;;;;;;;5034728;28;20050;-68
2022/06/09 02:46:39;;;;;;;1.20;0.80;;;;;;;;;;5035351;28;20072;-68
2022/06/09 02:49:06;;;;;;;1.80;0.90;;;;;;;;;;5036563;28;20053;-68
2022/06/09 02:51:34;;;;;;;1.27;0.70;;;;;;;;;;5054157;28;20052;-68
2022/06/09 02:54:04;;;;;;;1.00;0.90;;;;;;;;;;5054041;28;20529;-69
2022/06/09 02:56:31;;;;;;;3.55;0.95;;;;;;;;;;5054139;28;20044;-67
2022/06/09 02:58:58;;;;;;;4.18;1.02;;;;;;;;;;5054051;28;20048;-68
2022/06/09 03:01:25;;;;;;;1.95;1.00;;;;;;;;;;5054113;28;20044;-68
2022/06/09 03:03:52;;;;;;;1.95;1.10;;;;;;;;;;5052883;28;20059;-68
2022/06/09 03:06:20;;;;;;;5.28;1.08;;;;;;;;;;5054252;28;20483;-68
2022/06/09 03:08:47;;;;;;;1.95;0.95;;;;;;;;;;5054086;28;20055;-68
2022/06/09 03:11:14;;;;;;;3.20;1.10;;;;;;;;;;5053738;28;20524;-68
2022/06/09 03:13:42;;;;;;;4.22;1.15;;;;;;;;;;5053651;28;20049;-67
2022/06/09 03:16:10;;;;;;;1.42;0.80;;;;;;;;;;5053997;28;20049;-68
2022/06/09 03:18:37;;;;;;;1.60;0.90;;;;;;;;;;5040078;28;20520;-68
2022/06/09 03:21:04;;;;;;;1.00;0.80;;;;;;;;;;5033489;28;20496;-67
2022/06/09 03:23:31;;;;;;;2.55;0.90;;;;;;;;;;5032487;28;20057;-69
2022/06/09 03:25:58;;;;;;;3.22;1.20;;;;;;;;;;5033777;28;20052;-68
2022/06/09 03:28:25;;;;;;;1.92;1.02;;;;;;;;;;5033678;28;20045;-68
2022/06/09 03:30:52;;;;;;;4.05;1.20;;;;;;;;;;5038161;28;20045;-68
2022/06/09 03:33:18;;;;;;;2.25;1.63;;;;;;;;;;5053644;28;20049;-68
2022/06/09 03:35:45;;;;;;;5.03;2.25;;;;;;;;;;5053484;28;20048;-68
2022/06/09 03:38:12;;;;;;;5.57;1.70;;;;;;;;;;5053424;28;20044;-68
2022/06/09 03:40:39;;;;;;;3.97;1.50;;;;;;;;;;5049245;28;20041;-69
2022/06/09 03:43:06;;;;;;;2.47;1.50;;;;;;;;;;5053264;28;20106;-69
2022/06/09 03:45:34;;;;;;;2.53;1.80;;;;;;;;;;5051958;28;20084;-68
2022/06/09 03:48:01;;;;;;;4.35;1.38;;;;;;;;;;5052439;28;20056;-69
2022/06/09 03:50:30;;;;;;;2.78;1.45;;;;;;;;;;5052602;28;20056;-68
2022/06/09 03:52:57;;;;;;;4.55;1.60;;;;;;;;;;5053251;28;20175;-68
2022/06/09 03:55:24;;;;;;;4.28;1.42;;;;;;;;;;5053226;28;20045;-68
2022/06/09 03:57:51;;;;;;;1.98;1.40;;;;;;;;;;5053428;28;20060;-68
2022/06/09 04:00:23;;;;;;;1.83;1.30;;;;;;;;;;5053303;28;20049;-68
2022/06/09 04:02:50;;;;;;;4.72;1.60;;;;;;;;;;5052642;28;20059;-68
2022/06/09 04:05:17;;;;;;;4.00;1.50;;;;;;;;;;5052970;28;20470;-68
2022/06/09 04:07:44;;;;;;;3.92;1.52;;;;;;;;;;5053470;28;20049;-68
2022/06/09 04:10:16;;;;;;;2.50;1.60;;;;;;;;;;5053245;28;20515;-68
2022/06/09 04:12:42;;;;;;;3.73;1.37;;;;;;;;;;5051894;28;20062;-68
2022/06/09 04:15:10;;;;;;;4.45;1.40;;;;;;;;;;5052906;28;20060;-68
2022/06/09 04:17:36;;;;;;;1.67;1.40;;;;;;;;;;5052844;28;20057;-68
2022/06/09 04:20:04;;;;;;;5.45;1.50;;;;;;;;;;5052776;28;20056;-67
2022/06/09 04:22:31;;;;;;;2.67;1.73;;;;;;;;;;5052363;28;20045;-66
2022/06/09 04:24:57;;;;;;;5.00;1.48;;;;;;;;;;5052880;28;20053;-68
2022/06/09 04:27:24;;;;;;;5.28;1.42;;;;;;;;;;5052654;28;20495;-68
2022/06/09 04:29:51;;;;;;;3.75;1.65;;;;;;;;;;5052360;28;20045;-67
2022/06/09 04:32:18;;;;;;;3.00;1.85;;;;;;;;;;5052217;28;20048;-68
2022/06/09 04:34:44;;;;;;;4.57;1.70;;;;;;;;;;5045735;28;20049;-68
2022/06/09 04:37:11;;;;;;;3.30;1.48;;;;;;;;;;5031217;28;20050;-68
2022/06/09 04:39:38;;;;;;;2.53;1.40;;;;;;;;;;5032447;28;20060;-67
2022/06/09 04:42:04;;;;;;;5.20;1.83;;;;;;;;;;5032219;28;20386;-68
2022/06/09 04:44:31;;;;;;;4.72;1.55;;;;;;;;;;5032595;28;20045;-68
2022/06/09 04:46:58;;;;;;;4.20;1.20;;;;;;;;;;5032279;28;20049;-68
2022/06/09 04:49:24;;;;;;;4.35;1.38;;;;;;;;;;5032230;28;20428;-68
2022/06/09 04:51:51;;;;;;;2.78;1.40;;;;;;;;;;5034925;28;20072;-69
2022/06/09 04:54:18;;;;;;;3.47;1.40;;;;;;;;;;5035016;28;20053;-67
2022/06/09 04:56:44;;;;;;;4.68;1.35;;;;;;;;;;5032203;28;20050;-68
2022/06/09 04:59:11;;;;;;;6.18;1.23;;;;;;;;;;5032182;28;20050;-68
2022/06/09 05:01:38;;;;;;;3.95;1.33;;;;;;;;;;5036890;28;20041;-67
2022/06/09 05:04:05;;;;;;;2.95;1.20;;;;;;;;;;5047782;28;20051;-68
2022/06/09 05:06:31;;;;;;;3.10;1.17;;;;;;;;;;5048906;28;20045;-68
2022/06/09 05:08:58;;;;;;;3.53;1.65;;;;;;;;;;5049486;28;20052;-68
2022/06/09 05:11:25;;;;;;;4.07;1.40;;;;;;;;;;5051933;28;20045;-67
2022/06/09 05:13:52;;;;;;;2.78;1.35;;;;;;;;;;5047152;28;20255;-68
2022/06/09 05:16:19;;;;;;;5.50;1.92;;;;;;;;;;5050314;28;20056;-67
2022/06/09 05:18:46;;;;;;;5.32;1.48;;;;;;;;;;5054741;28;20052;-68
2022/06/09 05:21:13;;;;;;;5.03;1.48;;;;;;;;;;5054750;28;20068;-67
2022/06/09 05:23:40;;;;;;;3.15;1.30;;;;;;;;;;5056357;28;20049;-68
2022/06/09 05:26:07;;;;;;;5.35;1.48;;;;;;;;;;5054783;28;20045;-68
2022/06/09 05:28:34;;;;;;;2.72;1.27;;;;;;;;;;5056882;28;20048;-68
2022/06/09 05:31:01;;;;;;;3.17;2.08;;;;;;;;;;5057999;28;20049;-67
2022/06/09 05:33:28;;;;;;;3.78;1.92;;;;;;;;;;5052618;28;20068;-68
2022/06/09 05:35:57;;;;;;;3.22;1.23;;;;;;;;;;5056074;28;20060;-68
2022/06/09 05:46:45;;;;;;;3.28;1.83;;;;;;;;;;5058719;28;20555;-69
2022/06/09 05:49:17;;;;;;;5.15;1.70;;;;;;;;;;5061105;28;20049;-68
2022/06/09 05:51:44;;;;;;;3.08;1.35;;;;;;;;;;5061232;28;20049;-67
2022/06/09 05:54:11;;;;;;;3.33;1.40;;;;;;;;;;5060299;28;20404;-68
2022/06/09 05:56:38;;;;;;;2.17;1.70;;;;;;;;;;5061123;28;20160;-68
2022/06/09 05:59:04;;;;;;;4.10;1.70;;;;;;;;;;5050504;28;20092;-68
2022/06/09 06:01:31;;;;;;;4.45;1.48;;;;;;;;;;5041732;28;20062;-68
2022/06/09 06:03:58;;;;;;;3.22;1.40;;;;;;;;;;5040394;28;20519;-68
2022/06/09 06:06:34;;;;;;;5.03;1.35;;;;;;;;;;5040880;28;20057;-68
2022/06/09 06:09:16;;;;;;;3.53;1.00;;;;;;;;;;5042816;28;20045;-68
2022/06/09 06:11:43;;;;;;;6.20;1.15;;;;;;;;;;5039607;28;20049;-68
2022/06/09 06:14:10;;;;;;;4.15;1.13;;;;;;;;;;5052683;28;20063;-69
2022/06/09 06:16:37;;;;;;;4.47;1.45;;;;;;;;;;5057631;28;20054;-68
2022/06/09 06:19:05;;;;;;;4.40;1.80;;;;;;;;;;5059692;28;20053;-68
2022/06/09 06:21:33;;;;;;;3.22;1.20;;;;;;;;;;5058661;28;20052;-68
2022/06/09 06:24:00;;;;;;;3.83;1.48;;;;;;;;;;5057745;28;20509;-67
2022/06/09 06:26:27;;;;;;;4.22;1.20;;;;;;;;;;5059588;28;20056;-68
2022/06/09 06:28:54;;;;;;;9.27;1.27;;;;;;;;;;5058536;28;20084;-68
2022/06/09 06:31:20;;;;;;;5.05;1.40;;;;;;;;;;5057843;28;20071;-68
2022/06/09 06:33:47;;;;;;;6.65;1.63;;;;;;;;;;5053603;28;20045;-67
2022/06/09 06:36:14;;;;;;;4.45;1.25;;;;;;;;;;5051829;28;20048;-67
2022/06/09 06:38:41;;;;;;;4.65;2.03;;;;;;;;;;5051227;28;20063;-68
2022/06/09 06:41:09;;;;;;;5.32;1.35;;;;;;;;;;5052271;28;20060;-66
2022/06/09 06:43:42;;;;;;;5.15;1.20;;;;;;;;;;5052242;28;20492;-66
2022/06/09 06:46:09;;;;;;;3.58;1.05;;;;;;;;;;5052099;28;20084;-67
2022/06/09 06:48:36;;;;;;;7.85;2.20;;;;;;;;;;5052868;28;20048;-67
2022/06/09 06:51:03;;;;;;;4.10;0.90;;;;;;;;;;5054872;28;20055;-67
2022/06/09 06:53:30;;;;;;;3.65;1.30;;;;;;;;;;5055667;28;20056;-66
2022/06/09 06:55:56;;;;;;;4.60;1.30;;;;;;;;;;5057853;28;20048;-66
2022/06/09 06:58:23;;;;;;;5.45;1.27;;;;;;;;;;5054617;28;20075;-66
2022/06/09 07:00:50;;;;;;;3.60;0.80;;;;;;;;;;5058006;28;20044;-68
2022/06/09 07:03:17;;;;;;;4.07;1.83;;;;;;;;;;5059801;28;20073;-69
2022/06/09 07:05:57;;;;;;;3.42;1.00;;;;;;;;;;5053911;28;20091;-68
2022/06/09 07:08:24;;;;;;;3.30;0.70;;;;;;;;;;5054907;28;20530;-67
2022/06/09 07:10:52;;;;;;;3.65;1.23;;;;;;;;;;5034451;28;20132;-68
2022/06/09 07:13:19;;;;;;;7.85;1.38;;;;;;;;;;5031601;28;20056;-67
2022/06/09 07:15:45;;;;;;;4.82;1.10;;;;;;;;;;5033497;28;20061;-68
2022/06/09 07:18:12;;;;;;;4.32;1.08;;;;;;;;;;5032450;28;20060;-68
2022/06/09 07:20:39;;;;;;;7.57;1.30;;;;;;;;;;5032944;28;20053;-67
2022/06/09 07:23:06;;;;;;;7.45;1.10;;;;;;;;;;5032926;28;20050;-68
2022/06/09 07:25:34;;;;;;;3.75;0.90;;;;;;;;;;5033256;28;20068;-67
2022/06/09 07:28:00;;;;;;;4.10;1.40;;;;;;;;;;5036054;28;20060;-67
2022/06/09 07:30:27;;;;;;;3.78;0.93;;;;;;;;;;5036372;28;20061;-67
2022/06/09 07:32:54;;;;;;;4.38;1.33;;;;;;;;;;5041419;28;20049;-65
2022/06/09 07:35:24;;;;;;;3.22;0.88;;;;;;;;;;5067008;28;20105;-67
2022/06/09 07:37:51;;;;;;;6.50;1.00;;;;;;;;;;5081932;28;20044;-70
2022/06/09 07:40:18;;;;;;;6.88;1.15;;;;;;;;;;5082091;28;20071;-68
2022/06/09 07:42:46;;;;;;;6.82;0.98;;;;;;;;;;5084351;28;20071;-69
2022/06/09 07:45:13;;;;;;;8.00;1.27;;;;;;;;;;5073572;28;20060;-69
2022/06/09 07:47:40;;;;;;;6.43;0.93;;;;;;;;;;5071095;28;20063;-67
2022/06/09 07:50:08;;;;;;;8.43;1.27;;;;;;;;;;5056348;28;20059;-67
2022/06/09 07:52:41;;;;;;;4.75;1.02;;;;;;;;;;5062044;28;20048;-67
2022/06/09 07:55:08;;;;;;;5.78;1.48;;;;;;;;;;5058076;28;20057;-67
2022/06/09 07:57:35;;;;;;;5.68;1.48;;;;;;;;;;5055313;28;20048;-67
2022/06/09 08:00:05;;;;;;;5.30;0.95;;;;;;;;;;5057946;28;20058;-66
2022/06/09 08:02:31;;;;;;;3.75;1.25;;;;;;;;;;5058635;28;20062;-66
2022/06/09 08:04:58;;;;;;;5.68;0.90;;;;;;;;;;5073752;28;20067;-66
2022/06/09 08:07:25;;;;;;;4.32;0.88;;;;;;;;;;5073733;28;20049;-67
2022/06/09 08:09:52;;;;;;;5.15;1.17;;;;;;;;;;5077685;28;20048;-67
2022/06/09 08:12:18;;;;;;;6.32;1.00;;;;;;;;;;5077411;28;20056;-67
2022/06/09 08:14:45;;;;;;;5.13;0.95;;;;;;;;;;5071171;28;20056;-68
2022/06/09 08:17:12;;;;;;;4.50;1.00;;;;;;;;;;5063848;28;20060;-68
2022/06/09 08:19:39;;;;;;;3.85;1.08;;;;;;;;;;5072022;28;20518;-67
2022/06/09 08:22:05;;;;;;;3.25;1.00;;;;;;;;;;5063289;28;20068;-67
2022/06/09 08:24:33;;;;;;;5.63;1.70;;;;;;;;;;5061787;28;20049;-68
2022/06/09 08:27:01;;;;;;;7.15;0.90;;;;;;;;;;5062617;28;20044;-68
2022/06/09 08:29:27;;;;;;;6.80;2.25;;;;;;;;;;5064564;28;20044;-67
2022/06/09 08:31:54;;;;;;;4.30;0.73;;;;;;;;;;5062337;28;20056;-67
2022/06/09 08:34:21;;;;;;;5.97;0.80;;;;;;;;;;5060414;28;20136;-68
2022/06/09 08:36:48;;;;;;;3.85;1.20;;;;;;;;;;5057729;28;20107;-67
2022/06/09 08:39:14;;;;;;;3.92;0.80;;;;;;;;;;5058343;28;20054;-67
2022/06/09 08:42:04;;;;;;;3.55;0.98;;;;;;;;;;5057642;28;20052;-66
2022/06/09 08:44:47;;;;;;;4.32;1.00;;;;;;;;;;5056886;28;20045;-67
2022/06/09 08:47:19;;;;;;;;;;;;;;;;;;5052792;28;20053;-67
2022/06/09 08:49:57;;;;;;;4.83;1.00;;;;;;;;;;5058535;28;19926;-67
2022/06/09 08:52:47;;;;;;;4.70;0.95;;;;;;;;;;5058308;28;20287;-67
2022/06/09 08:55:19;;;;;;;5.53;0.77;;;;;;;;;;5048945;28;20053;-67
2022/06/09 08:57:46;;;;;;;3.75;0.70;;;;;;;;;;5055309;28;20049;-67
2022/06/09 09:00:16;;;;;;;3.90;0.80;;;;;;;;;;5059115;28;20448;-67
2022/06/09 09:02:50;;;;;;;4.30;0.90;;;;;;;;;;5052434;28;20049;-67
2022/06/09 09:05:36;;;;;;;2.33;0.73;;;;;;;;;;5067671;22;20069;-69
2022/06/09 09:08:06;;;;;;;6.82;1.67;;;;;;;;;;5011910;28;20084;-68
2022/06/09 09:11:08;;;;;;;5.10;1.35;;;;;;;;;;5030559;28;20049;-68
2022/06/09 09:13:44;;;;;;;3.80;0.90;;;;;;;;;;5030577;28;20053;-69
2022/06/09 09:16:39;;;;;;;3.85;0.65;;;;;;;;;;5011083;28;20046;-69
2022/06/09 09:19:18;;;;;;;6.75;1.20;;;;;;;;;;4994253;28;20129;-69
2022/06/09 09:22:00;;;;;;;4.25;0.90;;;;;;;;;;5004671;28;20411;-68
2022/06/09 09:24:29;;;;;;;5.38;1.08;;;;;;;;;;5007256;28;20050;-70
2022/06/09 09:26:59;;;;;;;7.10;1.50;;;;;;;;;;5011386;28;20489;-69
2022/06/09 09:29:34;;;;;;;3.90;0.93;;;;;;;;;;5011663;28;20045;-66
2022/06/09 09:32:08;;;;;;;7.85;1.10;;;;;;;;;;5009919;28;20061;-68
2022/06/09 09:34:39;;;;;;;2.72;0.70;;;;;;;;;;5006212;28;20049;-66
2022/06/09 09:37:36;;;;;;;2.95;0.65;;;;;;;;;;5009766;28;20485;-65
2022/06/09 09:40:21;;;;;;;2.50;0.68;;;;;;;;;;5011015;28;20056;-70
2022/06/09 09:42:48;;;;;;;2.95;0.70;;;;;;;;;;5010653;28;20050;-69
2022/06/09 09:45:18;;;;;;;2.67;0.85;;;;;;;;;;4991813;28;20050;-69
2022/06/09 09:47:58;;;;;;;1.88;0.88;;;;;;;;;;5008300;28;20054;-69
2022/06/09 09:50:31;;;;;;;2.50;0.70;;;;;;;;;;5005730;28;20517;-69
2022/06/09 09:53:09;;;;;;;4.78;0.80;;;;;;;;;;4989196;28;20137;-69
2022/06/09 09:55:38;;;;;;;5.22;1.15;;;;;;;;;;4999305;28;20057;-70
2022/06/09 09:58:28;;;;;;;4.30;1.10;;;;;;;;;;5008603;28;20058;-69
2022/06/09 10:01:01;;;;;;;4.25;1.05;;;;;;;;;;5010018;28;20100;-69
2022/06/09 10:09:47;;;;;;;2.92;0.60;;;;;;;;;;4995716;28;20494;-70
2022/06/09 10:12:33;;;;;;;1.75;0.65;;;;;;;;;;5008636;28;20124;-69
2022/06/09 10:15:19;;;;;;;4.45;0.82;;;;;;;;;;4995150;28;20048;-70
2022/06/09 10:18:10;;;;;;;3.90;0.77;;;;;;;;;;5009603;28;20160;-67
2022/06/09 10:21:07;;;;;;;2.65;0.80;;;;;;;;;;4981084;28;20045;-68
2022/06/09 10:23:42;;;;;;;3.03;1.00;;;;;;;;;;5011077;28;20497;-69
2022/06/09 10:26:22;;;;;;;1.75;0.60;;;;;;;;;;5010168;28;20069;-67
2022/06/09 10:29:03;;;;;;;7.47;0.90;;;;;;;;;;5010373;28;20108;-67
2022/06/09 10:31:50;;;;;;;3.35;0.82;;;;;;;;;;5009977;28;20085;-66
2022/06/09 10:34:23;;;;;;;4.95;0.70;;;;;;;;;;5014609;28;20056;-68
2022/06/09 10:37:12;;;;;;;3.67;1.00;;;;;;;;;;5000834;28;20124;-66
2022/06/09 10:39:47;;;;;;;2.25;0.60;;;;;;;;;;5005100;28;20077;-67
2022/06/09 10:42:28;;;;;;;5.18;0.80;;;;;;;;;;5007197;28;20084;-68
2022/06/09 10:45:19;;;;;;;3.78;0.80;;;;;;;;;;4988137;28;20050;-67
2022/06/09 10:56:53;;;;;;;2.10;0.60;;;;;;;;;;4994013;28;20058;-68
2022/06/09 10:59:25;;;;;;;4.85;1.00;;;;;;;;;;4985084;28;20054;-67
2022/06/09 11:01:51;;;;;;;3.92;1.45;;;;;;;;;;4995588;28;20406;-67
2022/06/09 11:04:18;;;;;;;8.30;1.20;;;;;;;;;;4994641;28;20061;-66
2022/06/09 11:07:20;;;;;;;3.55;1.15;;;;;;;;;;4977392;28;20138;-67
2022/06/09 11:09:59;;;;;;;3.10;0.90;;;;;;;;;;4993989;28;20058;-67
2022/06/09 11:12:47;;;;;;;2.33;0.65;;;;;;;;;;4994469;28;20058;-67
2022/06/09 11:15:32;;;;;;;3.63;1.05;;;;;;;;;;4994583;28;20086;-69
2022/06/09 11:18:23;;;;;;;7.85;1.08;;;;;;;;;;4994676;28;20053;-67
2022/06/09 11:21:03;;;;;;;4.32;1.20;;;;;;;;;;4994375;28;20057;-67
2022/06/09 11:23:53;;;;;;;6.07;1.02;;;;;;;;;;4994143;28;20069;-67
2022/06/09 11:26:20;;;;;;;3.38;1.05;;;;;;;;;;4993187;28;20053;-68
2022/06/09 11:29:06;;;;;;;4.70;0.70;;;;;;;;;;5005225;28;20057;-67
2022/06/09 11:31:52;;;;;;;3.97;0.73;;;;;;;;;;5013471;28;20056;-67
2022/06/09 11:34:51;;;;;;;4.88;1.10;;;;;;;;;;5013907;28;20061;-67
2022/06/09 11:37:26;;;;;;;2.33;0.80;;;;;;;;;;5013665;28;20060;-66
2022/06/09 11:40:15;;;;;;;6.97;1.55;;;;;;;;;;5012500;28;20052;-67
2022/06/09 11:43:00;;;;;;;4.28;0.50;;;;;;;;;;5012289;28;20077;-67
2022/06/09 11:45:33;;;;;;;1.65;0.50;;;;;;;;;;5011581;28;20058;-66
2022/06/09 11:48:01;;;;;;;1.17;0.50;;;;;;;;;;4996349;28;20402;-67
2022/06/09 11:50:35;;;;;;;1.83;0.60;;;;;;;;;;4996166;28;20064;-66
2022/06/09 11:53:02;;;;;;;8.23;1.30;;;;;;;;;;4996639;28;20060;-67
2022/06/09 11:58:34;;;;;;;5.20;0.95;;;;;;;;;;5013285;28;20057;-67
2022/06/09 12:01:40;;;;;;;2.65;0.88;;;;;;;;;;5012995;28;20050;-67
2022/06/09 12:04:48;;;;;;;1.30;0.52;;;;;;;;;;4999239;28;20046;-66
2022/06/09 12:07:38;;;;;;;4.90;1.05;;;;;;;;;;5013585;28;20636;-66
2022/06/09 12:10:42;;;;;;;4.38;0.70;;;;;;;;;;4995089;28;20421;-67
2022/06/09 12:13:12;;;;;;;5.93;0.82;;;;;;;;;;4992190;28;20057;-68
2022/06/09 12:15:51;;;;;;;3.08;0.80;;;;;;;;;;4993185;28;20096;-68
2022/06/09 12:18:19;;;;;;;3.05;0.80;;;;;;;;;;4993400;28;20054;-67
2022/06/09 12:20:46;;;;;;;2.33;0.88;;;;;;;;;;4993009;28;20060;-67
2022/06/09 12:23:26;;;;;;;4.28;1.00;;;;;;;;;;5000937;28;20052;-67
2022/06/09 12:26:08;;;;;;;4.53;0.82;;;;;;;;;;5011534;28;20064;-68
2022/06/09 12:28:50;;;;;;;4.20;0.80;;;;;;;;;;5013132;28;20054;-68
2022/06/09 12:31:25;;;;;;;2.83;0.80;;;;;;;;;;5012501;28;20492;-67
2022/06/09 12:34:05;;;;;;;3.40;0.50;;;;;;;;;;5012717;28;20096;-66
2022/06/09 12:36:38;;;;;;;3.28;0.50;;;;;;;;;;5009129;28;20476;-73
2022/06/09 12:39:24;;;;;;;3.05;0.80;;;;;;;;;;5009055;28;20055;-67
2022/06/09 12:41:52;;;;;;;2.80;0.80;;;;;;;;;;5003204;28;20042;-67
2022/06/09 12:44:22;;;;;;;4.25;0.80;;;;;;;;;;5011721;28;20081;-67
2022/06/09 12:47:12;;;;;;;2.22;0.68;;;;;;;;;;5011415;28;20068;-66
2022/06/09 12:49:42;;;;;;;3.58;1.25;;;;;;;;;;4991865;28;20054;-67
2022/06/09 12:52:32;;;;;;;2.92;0.60;;;;;;;;;;4992536;28;20068;-65
2022/06/09 12:55:00;;;;;;;5.30;0.93;;;;;;;;;;4991371;28;20138;-67
2022/06/09 12:57:30;;;;;;;7.85;1.00;;;;;;;;;;5007995;28;20054;-66
2022/06/09 13:00:16;;;;;;;3.42;0.82;;;;;;;;;;4995643;28;20041;-67
2022/06/09 13:02:43;;;;;;;3.78;0.90;;;;;;;;;;5012335;28;20054;-67
2022/06/09 13:05:14;;;;;;;3.40;1.27;;;;;;;;;;5010614;28;20427;-67
2022/06/09 13:07:47;;;;;;;2.97;0.93;;;;;;;;;;5001141;28;20058;-67
2022/06/09 13:10:41;;;;;;;2.47;0.68;;;;;;;;;;5001491;28;20056;-65
2022/06/09 13:13:21;;;;;;;2.28;0.90;;;;;;;;;;5009239;28;20322;-67
2022/06/09 13:16:05;;;;;;;2.58;0.65;;;;;;;;;;5003075;28;20045;-67
2022/06/09 13:18:41;;;;;;;3.17;0.85;;;;;;;;;;5024784;28;20132;-68
2022/06/09 13:21:32;;;;;;;1.30;0.80;;;;;;;;;;5010665;28;20053;-65
2022/06/09 13:23:59;;;;;;;3.58;0.65;;;;;;;;;;4997313;28;20081;-66
2022/06/09 13:26:31;;;;;;;2.20;0.80;;;;;;;;;;4993048;28;20555;-67
2022/06/09 13:29:00;;;;;;;1.95;0.60;;;;;;;;;;4993526;28;20053;-66
2022/06/09 13:31:30;;;;;;;3.90;0.90;;;;;;;;;;4992725;28;20140;-67
2022/06/09 13:34:11;;;;;;;3.28;1.05;;;;;;;;;;5010770;28;20523;-66
2022/06/09 13:36:41;;;;;;;2.92;0.75;;;;;;;;;;5008882;28;20046;-65
2022/06/09 13:39:27;;;;;;;5.45;1.10;;;;;;;;;;4993418;28;20060;-65
2022/06/09 13:42:19;;;;;;;2.92;1.00;;;;;;;;;;5010212;28;20089;-75
2022/06/09 13:44:59;;;;;;;3.25;0.90;;;;;;;;;;5009955;28;20050;-65
2022/06/09 13:47:28;;;;;;;3.42;0.70;;;;;;;;;;5006711;28;20049;-72
2022/06/09 13:49:54;;;;;;;3.58;1.00;;;;;;;;;;5032513;28;20136;-74
2022/06/09 13:52:31;;;;;;;3.70;0.80;;;;;;;;;;5018885;28;20045;-69
2022/06/09 13:54:59;;;;;;;2.97;0.95;;;;;;;;;;4989487;28;20042;-71
2022/06/09 13:57:35;;;;;;;4.32;0.90;;;;;;;;;;5010161;28;20050;-70
2022/06/09 14:00:21;;;;;;;6.22;1.50;;;;;;;;;;5024049;28;20490;-72
2022/06/09 14:03:03;;;;;;;3.53;1.02;;;;;;;;;;5001487;28;20052;-72
2022/06/09 14:05:31;;;;;;;;;;;;;;;;;;5011806;28;20100;-75
2022/06/09 14:07:58;;;;;;;3.63;1.30;;;;;;;;;;5008657;28;19925;-75
2022/06/09 14:10:26;;;;;;;4.30;0.98;;;;;;;;;;5012656;28;20053;-74
2022/06/09 14:12:53;;;;;;;6.47;1.10;;;;;;;;;;5011642;28;20556;-74
2022/06/09 14:15:21;;;;;;;4.88;1.25;;;;;;;;;;5013559;28;20046;-75
2022/06/09 14:17:50;;;;;;;4.78;1.15;;;;;;;;;;4996785;28;20086;-76
2022/06/09 14:20:20;;;;;;;4.00;1.77;;;;;;;;;;5013683;28;20121;-73
2022/06/09 14:22:47;;;;;;;5.57;1.50;;;;;;;;;;4998221;28;20046;-72
2022/06/09 14:25:15;;;;;;;6.20;1.27;;;;;;;;;;5012851;28;20045;-71
2022/06/09 14:27:43;;;;;;;9.23;1.73;;;;;;;;;;5011778;28;20136;-71
2022/06/09 14:30:14;;;;;;;4.97;1.75;;;;;;;;;;5013662;28;20061;-71
2022/06/09 14:32:41;;;;;;;4.40;1.73;;;;;;;;;;4996017;28;20065;-73
2022/06/09 14:35:08;;;;;;;3.53;1.10;;;;;;;;;;4996503;28;20129;-73
2022/06/09 14:37:36;;;;;;;4.35;1.10;;;;;;;;;;5013243;28;20517;-72
2022/06/09 14:40:06;;;;;;;3.38;1.58;;;;;;;;;;5013260;28;20396;-73
2022/06/09 14:42:32;;;;;;;5.28;1.42;;;;;;;;;;5012059;28;20061;-75
2022/06/09 14:44:59;;;;;;;3.00;1.08;;;;;;;;;;5012338;28;20046;-74
2022/06/09 14:47:26;;;;;;;4.80;1.60;;;;;;;;;;5012611;28;20073;-72
2022/06/09 14:49:53;;;;;;;4.03;1.08;;;;;;;;;;5003623;28;20061;-75
2022/06/09 14:52:19;;;;;;;6.60;1.63;;;;;;;;;;5011868;28;20133;-72
2022/06/09 14:54:47;;;;;;;3.08;1.17;;;;;;;;;;5005588;28;20507;-72
2022/06/09 14:57:17;;;;;;;3.33;1.73;;;;;;;;;;5013464;28;20061;-74
2022/06/09 14:59:45;;;;;;;6.10;1.38;;;;;;;;;;5012965;28;20112;-72
2022/06/09 15:02:18;;;;;;;2.08;1.08;;;;;;;;;;4993684;28;20465;-73
2022/06/09 15:07:16;;;;;;;4.30;1.10;;;;;;;;;;5019108;28;20272;-72
2022/06/09 15:09:46;;;;;;;4.70;1.35;;;;;;;;;;5020144;28;20049;-72
2022/06/09 15:12:21;;;;;;;2.90;0.95;;;;;;;;;;5024161;28;20144;-75
2022/06/09 15:14:56;;;;;;;3.35;1.33;;;;;;;;;;5011844;28;20507;-75
2022/06/09 15:17:29;;;;;;;1.63;1.00;;;;;;;;;;5024285;28;20489;-74
2022/06/09 15:20:00;;;;;;;3.88;1.20;;;;;;;;;;5022404;28;20084;-76
2022/06/09 15:22:27;;;;;;;3.83;1.00;;;;;;;;;;5019469;28;20046;-70
2022/06/09 15:24:54;;;;;;;4.32;1.13;;;;;;;;;;5019295;28;20111;-71
2022/06/09 15:27:21;;;;;;;2.80;1.00;;;;;;;;;;5019506;28;20057;-71
2022/06/09 15:29:48;;;;;;;3.70;0.90;;;;;;;;;;5020141;28;20050;-73
2022/06/09 15:32:16;;;;;;;3.83;1.13;;;;;;;;;;5021477;28;20539;-72
2022/06/09 15:34:43;;;;;;;2.13;0.93;;;;;;;;;;5021591;28;20046;-74
2022/06/09 15:37:10;;;;;;;3.20;1.00;;;;;;;;;;5019841;28;20045;-68
2022/06/09 15:39:38;;;;;;;3.22;1.00;;;;;;;;;;5011941;28;20057;-68
2022/06/09 15:42:05;;;;;;;2.08;0.85;;;;;;;;;;5011785;28;20520;-68